createdAt,value
2022-11-16T00:01:40.753Z,7.62
2022-11-16T00:04:11.884Z,7.53
2022-11-16T00:06:39.853Z,7.49
2022-11-16T00:09:28.670Z,7.46
2022-11-16T00:11:59.043Z,7.49
2022-11-16T00:14:28.170Z,7.51
2022-11-16T00:16:56.282Z,7.40
2022-11-16T00:19:24.539Z,7.32
2022-11-16T00:21:52.225Z,7.32
2022-11-16T00:24:21.587Z,7.33
2022-11-16T00:26:49.947Z,7.34
2022-11-16T00:29:20.542Z,7.37
2022-11-16T00:31:49.530Z,7.42
2022-11-16T00:34:18.359Z,7.46
2022-11-16T00:36:46.130Z,7.47
2022-11-16T00:39:14.150Z,7.51
2022-11-16T00:41:42.238Z,7.54
2022-11-16T00:44:10.259Z,7.54
2022-11-16T00:46:39.335Z,7.51
2022-11-16T00:49:07.348Z,7.43
2022-11-16T00:51:37.438Z,7.41
2022-11-16T00:54:06.599Z,7.47
2022-11-16T00:56:34.337Z,7.49
2022-11-16T00:59:01.956Z,7.45
2022-11-16T01:01:29.723Z,7.44
2022-11-16T01:03:58.793Z,7.48
2022-11-16T01:06:26.541Z,7.51
2022-11-16T01:08:54.318Z,7.54
2022-11-16T01:11:39.671Z,7.57
2022-11-16T01:14:09.436Z,7.49
2022-11-16T01:16:37.618Z,7.46
2022-11-16T01:19:07.198Z,7.42
2022-11-16T01:21:35.048Z,7.42
2022-11-16T01:24:03.008Z,7.36
2022-11-16T01:26:30.748Z,7.29
2022-11-16T01:28:59.334Z,7.26
2022-11-16T01:31:26.984Z,7.32
2022-11-16T01:33:55.437Z,7.34
2022-11-16T01:36:24.476Z,7.24
2022-11-16T01:38:52.155Z,7.18
2022-11-16T01:41:21.552Z,7.23
2022-11-16T01:43:55.047Z,7.30
2022-11-16T01:46:23.062Z,7.33
2022-11-16T01:48:53.240Z,7.37
2022-11-16T01:51:21.764Z,7.35
2022-11-16T01:53:51.002Z,7.31
2022-11-16T01:56:18.709Z,7.32
2022-11-16T01:58:46.810Z,7.40
2022-11-16T02:01:14.536Z,7.41
2022-11-16T02:03:42.503Z,7.38
2022-11-16T02:06:35.953Z,7.40
2022-11-16T02:09:35.408Z,7.42
2022-11-16T02:12:14.635Z,7.45
2022-11-16T02:14:53.421Z,7.42
2022-11-16T02:17:27.725Z,7.36
2022-11-16T02:20:20.610Z,7.34
2022-11-16T02:23:04.449Z,7.36
2022-11-16T02:25:39.142Z,7.21
2022-11-16T02:28:17.915Z,7.21
2022-11-16T02:30:50.353Z,7.24
2022-11-16T02:33:20.008Z,7.30
2022-11-16T02:35:50.099Z,7.34
2022-11-16T02:38:20.734Z,7.38
2022-11-16T02:40:51.063Z,7.42
2022-11-16T02:43:22.324Z,7.44
2022-11-16T02:45:52.864Z,7.47
2022-11-16T02:48:23.485Z,7.49
2022-11-16T02:50:52.719Z,7.49
2022-11-16T02:53:21.786Z,7.51
2022-11-16T02:55:49.502Z,7.52
2022-11-16T02:58:19.638Z,7.54
2022-11-16T03:00:52.338Z,7.54
2022-11-16T03:03:25.082Z,7.49
2022-11-16T03:05:54.961Z,7.48
2022-11-16T03:08:25.867Z,7.50
2022-11-16T03:11:13.819Z,7.47
2022-11-16T03:13:42.030Z,7.48
2022-11-16T03:16:14.748Z,7.48
2022-11-16T03:18:43.011Z,7.52
2022-11-16T03:21:17.292Z,7.51
2022-11-16T03:23:46.350Z,7.51
2022-11-16T03:26:16.704Z,7.54
2022-11-16T03:28:50.851Z,7.53
2022-11-16T03:31:25.542Z,7.53
2022-11-16T03:33:56.024Z,7.52
2022-11-16T03:36:27.695Z,7.51
2022-11-16T03:38:56.961Z,7.50
2022-11-16T03:41:25.141Z,7.45
2022-11-16T03:43:53.415Z,7.44
2022-11-16T03:46:22.503Z,7.37
2022-11-16T03:48:50.132Z,7.40
2022-11-16T03:51:17.806Z,7.45
2022-11-16T03:53:45.577Z,7.48
2022-11-16T03:56:13.275Z,7.50
2022-11-16T03:58:40.968Z,7.51
2022-11-16T04:01:08.693Z,7.51
2022-11-16T04:03:37.714Z,7.52
2022-11-16T04:06:23.171Z,7.50
2022-11-16T04:09:08.379Z,7.50
2022-11-16T04:11:54.744Z,7.48
2022-11-16T04:14:41.197Z,7.51
2022-11-16T04:17:29.490Z,7.54
2022-11-16T04:20:16.176Z,7.57
2022-11-16T04:23:04.280Z,7.60
2022-11-16T04:25:33.492Z,7.57
2022-11-16T04:28:16.377Z,7.60
2022-11-16T04:31:03.940Z,7.60
2022-11-16T04:33:49.708Z,7.63
2022-11-16T04:36:36.318Z,7.66
2022-11-16T04:39:04.488Z,7.67
2022-11-16T04:41:49.738Z,7.67
2022-11-16T04:44:17.514Z,7.66
2022-11-16T04:47:02.187Z,7.67
2022-11-16T04:49:29.877Z,7.68
2022-11-16T04:51:58.940Z,7.71
2022-11-16T04:54:26.686Z,7.70
2022-11-16T04:56:54.456Z,7.72
2022-11-16T04:59:22.235Z,7.74
2022-11-16T05:02:07.438Z,7.76
2022-11-16T05:04:35.510Z,7.79
2022-11-16T05:07:04.742Z,7.81
2022-11-16T05:09:32.405Z,7.84
2022-11-16T05:12:00.110Z,7.86
2022-11-16T05:14:27.816Z,7.89
2022-11-16T05:16:55.447Z,7.92
2022-11-16T05:19:40.706Z,7.94
2022-11-16T05:22:09.749Z,7.97
2022-11-16T05:24:37.457Z,7.99
2022-11-16T05:27:07.103Z,7.98
2022-11-16T05:29:34.820Z,8.00
2022-11-16T05:32:02.909Z,8.02
2022-11-16T05:34:31.307Z,8.04
2022-11-16T05:36:59.698Z,8.05
2022-11-16T05:39:29.023Z,8.08
2022-11-16T05:41:57.164Z,8.10
2022-11-16T05:44:25.236Z,8.11
2022-11-16T05:46:53.235Z,8.14
2022-11-16T05:49:21.085Z,8.15
2022-11-16T05:51:49.426Z,8.16
2022-11-16T05:54:18.821Z,8.18
2022-11-16T05:56:48.750Z,8.21
2022-11-16T05:59:18.142Z,8.21
2022-11-16T06:01:46.042Z,8.22
2022-11-16T06:04:14.364Z,8.22
2022-11-16T06:06:42.346Z,8.22
2022-11-16T06:09:11.570Z,8.21
2022-11-16T06:11:39.308Z,8.20
2022-11-16T06:14:08.569Z,8.20
2022-11-16T06:16:36.275Z,8.20
2022-11-16T06:19:04.015Z,8.19
2022-11-16T06:21:32.966Z,8.19
2022-11-16T06:24:02.585Z,8.18
2022-11-16T06:26:30.291Z,8.21
2022-11-16T06:28:57.970Z,8.20
2022-11-16T06:31:27.118Z,8.20
2022-11-16T06:33:54.868Z,8.20
2022-11-16T06:36:22.654Z,8.20
2022-11-16T06:38:50.889Z,8.20
2022-11-16T06:41:18.657Z,8.19
2022-11-16T06:43:46.423Z,8.20
2022-11-16T06:46:14.131Z,8.19
2022-11-16T06:48:43.258Z,8.19
2022-11-16T06:51:11.003Z,8.20
2022-11-16T06:53:38.753Z,8.22
2022-11-16T06:56:07.264Z,8.23
2022-11-16T06:58:35.366Z,8.22
2022-11-16T07:01:07.063Z,8.23
2022-11-16T07:03:34.881Z,8.27
2022-11-16T07:06:08.366Z,8.27
2022-11-16T07:08:36.555Z,8.30
2022-11-16T07:11:05.366Z,8.33
2022-11-16T07:13:33.716Z,8.32
2022-11-16T07:16:03.013Z,8.34
2022-11-16T07:18:30.943Z,8.34
2022-11-16T07:20:58.736Z,8.35
2022-11-16T07:23:28.871Z,8.39
2022-11-16T07:26:01.007Z,8.40
2022-11-16T07:28:28.966Z,8.44
2022-11-16T07:30:56.710Z,8.45
2022-11-16T07:33:24.444Z,8.48
2022-11-16T07:35:52.127Z,8.50
2022-11-16T07:38:19.835Z,8.53
2022-11-16T07:40:49.081Z,8.53
2022-11-16T07:43:16.756Z,8.56
2022-11-16T07:45:44.481Z,8.59
2022-11-16T07:48:12.129Z,8.60
2022-11-16T07:50:39.802Z,8.62
2022-11-16T07:53:07.470Z,8.63
2022-11-16T07:55:35.134Z,8.63
2022-11-16T07:58:04.142Z,8.65
2022-11-16T08:00:32.137Z,8.67
2022-11-16T08:02:59.808Z,8.69
2022-11-16T08:05:27.514Z,8.71
2022-11-16T08:07:55.154Z,8.72
2022-11-16T08:10:23.303Z,8.74
2022-11-16T08:12:51.101Z,8.77
2022-11-16T08:15:20.184Z,8.77
2022-11-16T08:17:48.023Z,8.81
2022-11-16T08:20:16.692Z,8.84
2022-11-16T08:22:45.121Z,8.87
2022-11-16T08:25:13.494Z,8.90
2022-11-16T08:27:41.658Z,8.95
2022-11-16T08:30:10.446Z,8.96
2022-11-16T08:32:41.234Z,8.99
2022-11-16T08:35:09.763Z,9.01
2022-11-16T08:37:37.423Z,9.04
2022-11-16T08:40:05.759Z,9.06
2022-11-16T08:42:33.382Z,9.08
2022-11-16T08:45:01.114Z,9.12
2022-11-16T08:47:28.824Z,9.15
2022-11-16T08:49:57.863Z,9.20
2022-11-16T08:52:25.706Z,9.26
2022-11-16T08:54:53.470Z,9.31
2022-11-16T08:57:21.160Z,9.32
2022-11-16T08:59:48.873Z,9.37
2022-11-16T09:02:16.592Z,9.42
2022-11-16T09:04:44.419Z,9.43
2022-11-16T09:07:13.774Z,9.43
2022-11-16T09:09:41.468Z,9.46
2022-11-16T09:12:09.289Z,9.48
2022-11-16T09:14:36.950Z,9.51
2022-11-16T09:17:04.666Z,9.50
2022-11-16T09:19:32.343Z,9.53
2022-11-16T09:22:00.027Z,9.52
2022-11-16T09:24:29.140Z,9.53
2022-11-16T09:26:57.575Z,9.52
2022-11-16T09:29:27.539Z,9.55
2022-11-16T09:31:55.356Z,9.58
2022-11-16T09:34:23.191Z,9.60
2022-11-16T09:36:50.847Z,9.62
2022-11-16T09:39:30.548Z,9.60
2022-11-16T09:42:11.147Z,9.63
2022-11-16T09:44:50.915Z,9.67
2022-11-16T09:47:21.745Z,9.69
2022-11-16T09:49:53.574Z,9.70
2022-11-16T09:52:27.752Z,9.72
2022-11-16T09:54:56.040Z,9.75
2022-11-16T09:57:29.009Z,9.74
2022-11-16T09:59:59.624Z,9.78
2022-11-16T10:02:29.550Z,9.80
2022-11-16T10:05:00.422Z,9.87
2022-11-16T10:07:32.033Z,9.90
2022-11-16T10:09:59.776Z,9.93
2022-11-16T10:12:34.620Z,9.96
2022-11-16T10:15:12.863Z,10.04
2022-11-16T10:18:14.162Z,10.09
2022-11-16T10:20:56.946Z,10.13
2022-11-16T10:23:33.234Z,10.18
2022-11-16T10:26:06.791Z,10.24
2022-11-16T10:29:00.733Z,10.25
2022-11-16T10:31:41.186Z,10.32
2022-11-16T10:34:09.702Z,10.38
2022-11-16T10:36:38.336Z,10.46
2022-11-16T10:39:11.157Z,10.52
2022-11-16T10:41:41.379Z,10.61
2022-11-16T10:44:16.242Z,10.60
2022-11-16T10:46:47.436Z,10.66
2022-11-16T10:49:19.063Z,10.74
2022-11-16T10:51:46.756Z,10.82
2022-11-16T10:54:14.535Z,10.93
2022-11-16T10:56:43.294Z,10.98
2022-11-16T10:59:14.043Z,11.06
2022-11-16T11:01:43.601Z,11.09
2022-11-16T11:04:17.230Z,11.11
2022-11-16T11:06:45.713Z,11.01
2022-11-16T11:09:22.059Z,11.10
2022-11-16T11:12:16.901Z,11.16
2022-11-16T11:14:59.841Z,11.20
2022-11-16T11:17:27.717Z,11.26
2022-11-16T11:20:00.536Z,11.27
2022-11-16T11:22:28.639Z,11.28
2022-11-16T11:24:56.416Z,11.29
2022-11-16T11:27:25.837Z,11.33
2022-11-16T11:29:55.132Z,11.32
2022-11-16T11:32:33.611Z,11.27
2022-11-16T11:35:01.921Z,11.20
2022-11-16T11:37:32.466Z,11.16
2022-11-16T11:40:18.614Z,11.10
2022-11-16T11:42:53.776Z,11.10
2022-11-16T11:45:22.535Z,11.09
2022-11-16T11:47:58.752Z,11.00
2022-11-16T11:50:36.912Z,10.99
2022-11-16T11:53:08.050Z,10.96
2022-11-16T11:55:35.890Z,10.91
2022-11-16T11:58:04.754Z,10.87
2022-11-16T12:00:37.931Z,10.84
2022-11-16T12:03:46.698Z,10.86
2022-11-16T12:06:20.853Z,10.82
2022-11-16T12:09:03.725Z,10.86
2022-11-16T12:11:38.019Z,10.91
2022-11-16T12:14:16.346Z,10.99
2022-11-16T12:16:47.349Z,11.02
2022-11-16T12:19:41.354Z,11.10
2022-11-16T12:22:17.275Z,11.18
2022-11-16T12:24:57.540Z,11.23
2022-11-16T12:27:36.984Z,11.35
2022-11-16T12:30:09.525Z,11.49
2022-11-16T12:32:44.949Z,11.69
2022-11-16T12:35:23.116Z,11.89
2022-11-16T12:37:57.476Z,12.02
2022-11-16T12:40:32.893Z,12.16
2022-11-16T12:43:05.163Z,12.18
2022-11-16T12:45:45.162Z,12.32
2022-11-16T12:48:51.142Z,12.45
2022-11-16T12:51:32.068Z,12.55
2022-11-16T12:54:12.214Z,12.64
2022-11-16T12:56:48.843Z,12.69
2022-11-16T12:59:25.718Z,12.78
2022-11-16T13:02:00.712Z,12.73
2022-11-16T13:04:31.544Z,12.63
2022-11-16T13:07:10.481Z,12.70
2022-11-16T13:09:40.995Z,12.74
2022-11-16T13:12:14.225Z,12.76
2022-11-16T13:14:44.793Z,12.51
2022-11-16T13:17:19.034Z,12.37
2022-11-16T13:19:50.579Z,12.32
2022-11-16T13:22:23.264Z,12.33
2022-11-16T13:24:55.646Z,12.40
2022-11-16T13:27:30.200Z,12.45
2022-11-16T13:30:00.718Z,12.43
2022-11-16T13:32:40.071Z,12.46
2022-11-16T13:35:13.970Z,12.48
2022-11-16T13:37:49.769Z,12.33
2022-11-16T13:40:31.243Z,12.31
2022-11-16T13:43:03.596Z,12.24
2022-11-16T13:45:36.217Z,12.17
2022-11-16T13:48:10.277Z,12.20
2022-11-16T13:50:39.270Z,12.22
2022-11-16T13:54:10.731Z,12.28
2022-11-16T13:56:02.736Z,12.29
2022-11-16T13:58:31.813Z,12.26
2022-11-16T14:01:04.369Z,12.34
2022-11-16T14:03:38.332Z,12.32
2022-11-16T14:06:08.535Z,12.33
2022-11-16T14:08:48.716Z,12.32
2022-11-16T14:11:32.029Z,12.33
2022-11-16T14:14:01.240Z,12.39
2022-11-16T14:16:43.204Z,12.38
2022-11-16T14:19:44.255Z,12.38
2022-11-16T14:22:17.512Z,12.38
2022-11-16T14:24:49.149Z,12.26
2022-11-16T14:27:30.310Z,12.26
2022-11-16T14:30:05.039Z,12.21
2022-11-16T14:32:38.305Z,12.22
2022-11-16T14:35:26.759Z,12.18
2022-11-16T14:37:58.625Z,12.14
2022-11-16T14:40:27.789Z,12.05
2022-11-16T14:45:49.933Z,11.89
2022-11-16T14:48:19.537Z,11.82
2022-11-16T14:50:49.582Z,11.76
2022-11-16T14:53:19.159Z,11.69
2022-11-16T14:55:48.376Z,11.64
2022-11-16T14:58:20.431Z,11.58
2022-11-16T15:00:54.931Z,11.51
2022-11-16T15:03:23.583Z,11.45
2022-11-16T15:05:51.422Z,11.37
2022-11-16T15:08:22.126Z,11.26
2022-11-16T15:10:52.715Z,11.21
2022-11-16T15:13:21.028Z,11.11
2022-11-16T15:15:50.154Z,11.04
2022-11-16T15:18:19.271Z,10.96
2022-11-16T15:20:51.471Z,10.86
2022-11-16T15:23:19.507Z,10.73
2022-11-16T15:25:52.705Z,10.63
2022-11-16T15:28:23.495Z,10.54
2022-11-16T15:30:53.085Z,10.49
2022-11-16T15:33:24.131Z,10.46
2022-11-16T15:35:53.896Z,10.42
2022-11-16T15:38:23.365Z,10.32
2022-11-16T15:40:52.996Z,10.23
2022-11-16T15:43:25.204Z,10.16
2022-11-16T15:45:52.801Z,10.11
2022-11-16T15:48:22.687Z,10.04
2022-11-16T15:51:02.987Z,9.94
2022-11-16T15:53:37.523Z,9.80
2022-11-16T15:56:06.974Z,9.70
2022-11-16T15:58:39.479Z,9.56
2022-11-16T16:01:07.922Z,9.46
2022-11-16T16:03:36.762Z,9.42
2022-11-16T16:06:05.603Z,9.39
2022-11-16T16:08:34.420Z,9.32
2022-11-16T16:11:10.437Z,9.29
2022-11-16T16:13:41.534Z,9.18
2022-11-16T16:16:26.146Z,8.94
2022-11-16T16:18:55.067Z,8.80
2022-11-16T16:21:22.957Z,8.78
2022-11-16T16:23:52.268Z,8.72
2022-11-16T16:26:19.970Z,8.69
2022-11-16T16:28:49.565Z,8.64
2022-11-16T16:31:18.352Z,8.52
2022-11-16T16:33:46.162Z,8.50
2022-11-16T16:36:15.370Z,8.42
2022-11-16T16:38:43.065Z,8.40
2022-11-16T16:41:22.667Z,8.39
2022-11-16T16:43:53.239Z,8.35
2022-11-16T16:46:21.667Z,8.28
2022-11-16T16:48:49.411Z,8.19
2022-11-16T16:51:17.060Z,8.19
2022-11-16T16:53:44.709Z,8.12
2022-11-16T16:56:16.061Z,8.04
2022-11-16T16:58:43.829Z,8.03
2022-11-16T17:01:13.166Z,7.98
2022-11-16T17:03:40.929Z,7.93
2022-11-16T17:06:08.756Z,7.86
2022-11-16T17:08:37.032Z,7.83
2022-11-16T17:11:05.341Z,7.75
2022-11-16T17:13:33.285Z,7.71
2022-11-16T17:16:05.354Z,7.69
2022-11-16T17:18:34.417Z,7.67
2022-11-16T17:21:05.276Z,7.60
2022-11-16T17:23:33.470Z,7.51
2022-11-16T17:26:04.877Z,7.26
2022-11-16T17:28:32.631Z,7.19
2022-11-16T17:31:18.275Z,7.08
2022-11-16T17:33:47.414Z,6.94
2022-11-16T17:36:15.336Z,6.91
2022-11-16T17:38:43.070Z,6.98
2022-11-16T17:41:12.693Z,7.03
2022-11-16T17:43:40.936Z,7.03
2022-11-16T17:46:09.941Z,6.94
2022-11-16T17:48:38.676Z,6.90
2022-11-16T17:51:07.881Z,6.86
2022-11-16T17:53:36.569Z,6.84
2022-11-16T17:56:04.938Z,6.84
2022-11-16T17:58:33.827Z,6.82
2022-11-16T18:01:01.859Z,6.67
2022-11-16T18:03:29.750Z,6.47
2022-11-16T18:06:04.869Z,6.44
2022-11-16T18:08:34.614Z,6.51
2022-11-16T18:11:06.878Z,6.50
2022-11-16T18:13:35.040Z,6.50
2022-11-16T18:16:07.201Z,6.42
2022-11-16T18:18:35.302Z,6.28
2022-11-16T18:21:03.009Z,6.28
2022-11-16T18:23:30.661Z,6.26
2022-11-16T18:25:59.605Z,6.23
2022-11-16T18:28:27.463Z,6.17
2022-11-16T18:31:03.229Z,6.09
2022-11-16T18:33:30.958Z,6.07
2022-11-16T18:35:58.916Z,6.01
2022-11-16T18:38:27.005Z,5.94
2022-11-16T18:41:07.163Z,5.94
2022-11-16T18:43:36.221Z,5.93
2022-11-16T18:46:04.481Z,5.83
2022-11-16T18:48:32.492Z,5.81
2022-11-16T18:51:00.811Z,5.80
2022-11-16T18:53:29.310Z,5.79
2022-11-16T18:55:58.268Z,5.73
2022-11-16T19:01:17.415Z,5.69
2022-11-16T19:03:45.443Z,5.66
2022-11-16T19:06:14.902Z,5.64
2022-11-16T19:08:43.598Z,5.68
2022-11-16T19:11:12.586Z,5.69
2022-11-16T19:13:43.549Z,5.64
2022-11-16T19:16:13.785Z,5.51
2022-11-16T19:18:41.607Z,5.43
2022-11-16T19:21:10.304Z,5.34
2022-11-16T19:23:38.348Z,5.24
2022-11-16T19:26:06.824Z,5.24
2022-11-16T19:28:36.918Z,5.16
2022-11-16T19:31:10.006Z,5.10
2022-11-16T19:33:38.279Z,5.08
2022-11-16T19:36:10.539Z,5.05
2022-11-16T19:38:38.218Z,5.10
2022-11-16T19:41:06.308Z,5.09
2022-11-16T19:43:34.716Z,5.09
2022-11-16T19:46:04.014Z,5.09
2022-11-16T19:48:33.836Z,5.07
2022-11-16T19:51:08.204Z,5.12
2022-11-16T19:53:36.662Z,5.16
2022-11-16T19:56:05.267Z,5.14
2022-11-16T19:58:33.354Z,5.15
2022-11-16T20:01:02.705Z,5.17
2022-11-16T20:03:31.102Z,5.16
2022-11-16T20:06:11.158Z,5.17
2022-11-16T20:08:39.941Z,5.18
2022-11-16T20:11:12.377Z,5.17
2022-11-16T20:13:40.129Z,5.15
2022-11-16T20:16:09.535Z,5.11
2022-11-16T20:18:37.451Z,5.11
2022-11-16T20:21:06.277Z,5.10
2022-11-16T20:23:36.102Z,5.10
2022-11-16T20:26:05.953Z,5.04
2022-11-16T20:28:37.158Z,5.00
2022-11-16T20:31:06.061Z,5.04
2022-11-16T20:33:34.719Z,5.03
2022-11-16T20:36:03.620Z,4.96
2022-11-16T20:38:33.582Z,4.90
2022-11-16T20:41:10.322Z,4.81
2022-11-16T20:43:39.305Z,4.77
2022-11-16T20:46:07.779Z,4.77
2022-11-16T20:48:35.539Z,4.78
2022-11-16T20:51:03.413Z,4.78
2022-11-16T20:53:31.174Z,4.78
2022-11-16T20:56:02.383Z,4.71
2022-11-16T20:58:31.979Z,4.68
2022-11-16T21:01:01.003Z,4.67
2022-11-16T21:03:28.763Z,4.63
2022-11-16T21:05:56.777Z,4.62
2022-11-16T21:08:25.231Z,4.61
2022-11-16T21:10:52.917Z,4.55
2022-11-16T21:13:38.842Z,4.55
2022-11-16T21:16:11.329Z,4.55
2022-11-16T21:18:39.488Z,4.56
2022-11-16T21:21:08.861Z,4.57
2022-11-16T21:23:37.572Z,4.53
2022-11-16T21:26:06.711Z,4.52
2022-11-16T21:28:34.707Z,4.52
2022-11-16T21:31:03.783Z,4.49
2022-11-16T21:33:33.754Z,4.49
2022-11-16T21:36:04.303Z,4.43
2022-11-16T21:38:32.591Z,4.32
2022-11-16T21:41:00.382Z,4.22
2022-11-16T21:43:28.128Z,4.14
2022-11-16T21:46:02.152Z,4.11
2022-11-16T21:48:30.064Z,4.07
2022-11-16T21:51:02.083Z,4.01
2022-11-16T21:53:30.109Z,4.10
2022-11-16T21:55:57.915Z,4.10
2022-11-16T21:58:25.778Z,4.11
2022-11-16T22:00:55.691Z,4.10
2022-11-16T22:03:23.684Z,4.08
2022-11-16T22:06:12.021Z,4.04
2022-11-16T22:08:41.646Z,4.02
2022-11-16T22:11:10.128Z,4.10
2022-11-16T22:13:38.400Z,4.19
2022-11-16T22:16:06.735Z,4.24
2022-11-16T22:18:35.230Z,4.33
2022-11-16T22:21:03.446Z,4.41
2022-11-16T22:23:31.384Z,4.54
2022-11-16T22:26:04.016Z,4.68
2022-11-16T22:28:32.216Z,4.74
2022-11-16T22:31:01.436Z,4.72
2022-11-16T22:33:32.090Z,4.69
2022-11-16T22:35:59.980Z,4.69
2022-11-16T22:38:28.030Z,4.67
2022-11-16T22:40:56.964Z,4.68
2022-11-16T22:43:27.711Z,4.75
2022-11-16T22:45:58.677Z,4.80
2022-11-16T22:48:31.263Z,4.88
2022-11-16T22:51:06.718Z,4.90
2022-11-16T22:53:35.361Z,4.89
2022-11-16T22:56:07.988Z,4.88
2022-11-16T22:58:39.745Z,4.86
2022-11-16T23:01:09.277Z,4.81
2022-11-16T23:03:37.774Z,4.83
2022-11-16T23:06:06.780Z,4.81
2022-11-16T23:08:35.200Z,4.80
2022-11-16T23:11:22.110Z,4.76
2022-11-16T23:14:09.515Z,4.70
2022-11-16T23:16:37.486Z,4.60
2022-11-16T23:19:25.249Z,4.55
2022-11-16T23:22:11.420Z,4.39
2022-11-16T23:24:58.794Z,4.28
2022-11-16T23:27:32.648Z,4.31
2022-11-16T23:30:06.667Z,4.31
2022-11-16T23:32:38.931Z,4.29
2022-11-16T23:35:07.426Z,4.29
2022-11-16T23:37:35.128Z,4.30
2022-11-16T23:40:02.840Z,4.28
2022-11-16T23:42:47.932Z,4.26
2022-11-16T23:45:17.245Z,4.27
2022-11-16T23:47:44.945Z,4.28
2022-11-16T23:50:12.619Z,4.31
2022-11-16T23:52:40.266Z,4.31
2022-11-16T23:55:08.834Z,4.34
2022-11-16T23:57:36.573Z,4.37
